Time;durP1;ratioP1;P1;durP2;ratioP2;P2;SDS_P1;SDS_P2;PMS_P1;PMS_P2;Temp;Humidity;BMP_temperature;BMP_pressure;BME280_temperature;BME280_humidity;BME280_pressure;Samples;Min_cycle;Max_cycle;Signal;HPM_P1;HPM_P2
2021/03/22 00:00:01;;;;;;;22.10;7.30;;;5.90;94.10;;;;;;5071307;28;20044;-75
2021/03/22 00:02:28;;;;;;;18.42;6.47;;;5.90;94.00;;;;;;5087814;28;20615;-75
2021/03/22 00:04:55;;;;;;;20.73;7.40;;;5.90;94.10;;;;;;5089146;28;20155;-75
2021/03/22 00:07:22;;;;;;;20.58;7.43;;;6.00;93.60;;;;;;5089051;28;20042;-75
2021/03/22 00:09:48;;;;;;;20.20;6.85;;;5.90;94.00;;;;;;5088240;28;20097;-75
2021/03/22 00:12:15;;;;;;;18.77;6.93;;;5.80;94.10;;;;;;5088341;28;20063;-75
2021/03/22 00:14:42;;;;;;;17.85;6.70;;;5.80;94.00;;;;;;5088048;28;20119;-75
2021/03/22 00:17:09;;;;;;;19.02;6.53;;;5.90;94.10;;;;;;5070143;28;20055;-74
2021/03/22 00:19:36;;;;;;;18.98;6.45;;;5.80;94.10;;;;;;5087336;28;20048;-74
2021/03/22 00:22:04;;;;;;;17.63;7.07;;;5.70;94.40;;;;;;5090980;28;20135;-74
2021/03/22 00:24:31;;;;;;;16.17;6.47;;;5.70;94.40;;;;;;5094318;28;20135;-74
2021/03/22 00:26:57;;;;;;;20.73;6.93;;;5.70;94.30;;;;;;5077702;28;20134;-74
2021/03/22 00:29:24;;;;;;;19.73;6.63;;;5.70;94.40;;;;;;5095907;28;20126;-74
2021/03/22 00:31:51;;;;;;;22.60;6.30;;;5.70;94.70;;;;;;5077891;28;20067;-73
2021/03/22 00:34:18;;;;;;;18.23;6.93;;;5.60;94.50;;;;;;5095582;28;20083;-74
2021/03/22 00:36:44;;;;;;;20.33;7.07;;;5.60;94.60;;;;;;5094909;28;20079;-74
2021/03/22 00:39:12;;;;;;;24.25;7.47;;;5.60;94.50;;;;;;5095105;28;20692;-74
2021/03/22 00:41:38;;;;;;;19.88;6.90;;;5.70;94.50;;;;;;5077127;28;20585;-74
2021/03/22 00:44:06;;;;;;;22.58;8.07;;;5.60;94.70;;;;;;5095561;28;20131;-74
2021/03/22 00:46:35;;;;;;;20.50;6.40;;;5.70;94.50;;;;;;5077492;28;20076;-74
2021/03/22 00:49:02;;;;;;;19.02;7.30;;;5.70;94.40;;;;;;5094386;28;20070;-73
2021/03/22 00:51:29;;;;;;;20.38;6.68;;;5.60;94.60;;;;;;5094805;28;20139;-74
2021/03/22 00:53:55;;;;;;;24.35;7.22;;;5.60;94.70;;;;;;5095432;28;20131;-73
2021/03/22 00:56:23;;;;;;;24.13;8.27;;;5.60;94.70;;;;;;5094257;28;20123;-74
2021/03/22 00:58:49;;;;;;;19.60;6.53;;;5.60;94.50;;;;;;5094938;28;20483;-73
2021/03/22 01:01:16;;;;;;;17.17;5.93;;;5.50;94.60;;;;;;5076616;28;20126;-74
2021/03/22 01:03:43;;;;;;;20.33;7.00;;;5.50;94.90;;;;;;5095163;28;20139;-74
2021/03/22 01:06:11;;;;;;;14.73;5.88;;;5.50;94.90;;;;;;5094965;28;20044;-74
2021/03/22 01:08:41;;;;;;;17.55;6.30;;;5.50;94.90;;;;;;5076763;28;20615;-73
2021/03/22 01:11:12;;;;;;;17.02;5.70;;;5.60;94.60;;;;;;5094895;28;20062;-74
2021/03/22 01:13:42;;;;;;;20.35;6.40;;;5.50;94.90;;;;;;5094741;28;20132;-73
2021/03/22 01:16:09;;;;;;;18.17;6.20;;;5.50;95.00;;;;;;5094856;28;20130;-74
2021/03/22 01:18:43;;;;;;;20.13;5.80;;;5.50;94.70;;;;;;5094358;28;20048;-74
2021/03/22 01:21:16;;;;;;;15.77;5.53;;;5.50;94.80;;;;;;5094579;28;20118;-73
2021/03/22 01:23:43;;;;;;;19.15;5.95;;;5.50;94.80;;;;;;5094607;28;20135;-74
2021/03/22 01:26:13;;;;;;;19.73;6.05;;;5.50;94.80;;;;;;5094630;28;20124;-74
2021/03/22 01:28:41;;;;;;;21.30;5.90;;;5.50;94.80;;;;;;5076515;28;20044;-73
2021/03/22 01:31:10;;;;;;;17.38;5.53;;;5.40;94.90;;;;;;5076500;28;20044;-74
2021/03/22 01:33:39;;;;;;;20.50;6.43;;;5.50;94.90;;;;;;5094430;28;20493;-73
2021/03/22 01:36:11;;;;;;;16.58;5.38;;;5.50;95.00;;;;;;5093687;28;20055;-75
2021/03/22 01:38:38;;;;;;;15.30;5.43;;;5.50;94.90;;;;;;5094172;28;20044;-74
2021/03/22 01:41:55;;;;;;;17.92;6.10;;;5.50;94.70;;;;;;5076132;28;20130;-73
2021/03/22 01:44:27;;;;;;;18.50;5.97;;;5.50;94.70;;;;;;5012149;28;20137;-73
2021/03/22 01:46:57;;;;;;;16.98;5.57;;;5.50;94.80;;;;;;5011960;28;20088;-74
2021/03/22 01:49:28;;;;;;;20.98;5.85;;;5.60;94.70;;;;;;5040169;28;20136;-73
2021/03/22 01:51:56;;;;;;;16.60;5.07;;;5.50;94.50;;;;;;5093954;28;20142;-74
2021/03/22 01:54:23;;;;;;;16.80;5.85;;;5.60;94.60;;;;;;5076115;28;20554;-74
2021/03/22 01:56:52;;;;;;;18.10;6.03;;;5.50;94.50;;;;;;5093947;28;20477;-74
2021/03/22 01:59:26;;;;;;;15.30;5.22;;;5.60;94.50;;;;;;5093762;28;20557;-74
2021/03/22 02:01:56;;;;;;;16.48;5.13;;;5.50;94.70;;;;;;5093876;28;20138;-73
2021/03/22 02:04:23;;;;;;;16.23;5.35;;;5.60;94.80;;;;;;5093691;28;20079;-75
2021/03/22 02:06:50;;;;;;;21.45;5.78;;;5.60;94.20;;;;;;5093747;28;20131;-75
2021/03/22 02:09:17;;;;;;;16.00;5.25;;;5.60;94.00;;;;;;5093607;28;20131;-75
2021/03/22 02:11:44;;;;;;;15.50;4.97;;;5.60;94.10;;;;;;5093766;28;20075;-75
2021/03/22 02:14:12;;;;;;;17.25;6.15;;;5.50;94.30;;;;;;5093321;28;20135;-75
2021/03/22 02:16:57;;;;;;;19.05;5.72;;;5.50;93.90;;;;;;5093729;28;20153;-75
2021/03/22 02:19:52;;;;;;;;;;;5.60;93.80;;;;;;5086763;28;20051;-74
2021/03/22 02:22:41;;;;;;;16.65;4.95;;;5.50;94.00;;;;;;5093205;28;20267;-75
2021/03/22 02:25:25;;;;;;;14.90;5.57;;;5.40;94.10;;;;;;5075448;28;20079;-75
2021/03/22 02:28:53;;;;;;;22.40;6.00;;;5.40;94.40;;;;;;5093600;28;20076;-74
2021/03/22 02:31:57;;;;;;;21.38;5.30;;;5.40;94.30;;;;;;5093117;28;20454;-73
2021/03/22 02:34:38;;;;;;;;;;;5.30;94.30;;;;;;5078260;28;20055;-75
2021/03/22 02:37:28;;;;;;;15.52;5.05;;;5.40;93.90;;;;;;5092700;28;19924;-75
2021/03/22 02:40:04;;;;;;;18.30;5.30;;;5.30;94.30;;;;;;5093009;28;20477;-75
2021/03/22 02:42:32;;;;;;;16.52;5.00;;;5.30;94.40;;;;;;5102171;28;20107;-75
2021/03/22 02:44:58;;;;;;;18.10;5.20;;;5.30;94.50;;;;;;5102287;28;20071;-74
2021/03/22 02:47:29;;;;;;;15.52;4.40;;;5.30;94.40;;;;;;5102958;28;20123;-75
2021/03/22 02:50:00;;;;;;;21.92;5.38;;;5.30;94.60;;;;;;5105440;28;20052;-75
2021/03/22 02:52:52;;;;;;;20.42;5.47;;;5.30;94.20;;;;;;5102066;28;20048;-75
2021/03/22 02:55:31;;;;;;;20.83;4.90;;;5.30;94.40;;;;;;5083146;28;20086;-75
2021/03/22 02:58:03;;;;;;;13.93;4.38;;;5.30;94.20;;;;;;5074494;28;20139;-75
2021/03/22 03:00:33;;;;;;;13.43;4.30;;;5.20;94.40;;;;;;5075071;28;20139;-74
2021/03/22 03:03:05;;;;;;;18.90;5.25;;;5.20;94.60;;;;;;5093007;28;20135;-75
2021/03/22 03:05:34;;;;;;;18.60;5.20;;;5.20;94.80;;;;;;5075828;28;20135;-75
2021/03/22 03:08:05;;;;;;;15.38;4.60;;;5.20;94.70;;;;;;5093671;28;20111;-75
2021/03/22 03:10:32;;;;;;;16.92;4.82;;;5.20;94.70;;;;;;5093539;28;20127;-75
2021/03/22 03:12:59;;;;;;;21.15;4.97;;;5.20;94.80;;;;;;5097208;28;20075;-75
2021/03/22 03:15:26;;;;;;;17.25;4.88;;;5.20;94.80;;;;;;5076849;28;20135;-75
2021/03/22 03:17:53;;;;;;;14.95;4.75;;;5.20;94.70;;;;;;5092092;28;20126;-75
2021/03/22 03:20:28;;;;;;;13.55;4.50;;;5.10;94.80;;;;;;5092546;28;20068;-75
2021/03/22 03:22:56;;;;;;;19.73;5.05;;;5.10;94.90;;;;;;5092659;28;20135;-75
2021/03/22 03:25:25;;;;;;;15.43;4.43;;;5.20;95.00;;;;;;5092684;28;20131;-75
2021/03/22 03:27:52;;;;;;;17.23;5.13;;;5.20;95.20;;;;;;5092574;28;20135;-74
2021/03/22 03:30:24;;;;;;;18.10;4.38;;;5.20;95.00;;;;;;5092818;28;20071;-75
2021/03/22 03:32:51;;;;;;;15.57;4.32;;;5.20;95.00;;;;;;5092205;28;20564;-75
2021/03/22 03:35:19;;;;;;;18.27;5.10;;;5.20;95.10;;;;;;5092736;28;20129;-75
2021/03/22 03:37:46;;;;;;;13.18;4.07;;;5.20;95.10;;;;;;5091774;28;20147;-75
2021/03/22 03:40:22;;;;;;;13.65;3.85;;;5.20;95.00;;;;;;5092155;28;20083;-75
2021/03/22 03:42:49;;;;;;;19.27;3.85;;;5.20;95.10;;;;;;5092069;28;20154;-75
2021/03/22 03:45:17;;;;;;;19.08;4.07;;;5.10;95.30;;;;;;5092503;28;20157;-75
2021/03/22 03:47:45;;;;;;;16.45;3.70;;;5.10;95.20;;;;;;5092488;28;20174;-75
2021/03/22 03:50:15;;;;;;;21.77;5.03;;;5.10;95.10;;;;;;5092308;28;20413;-75
2021/03/22 03:52:42;;;;;;;14.38;3.65;;;5.20;95.20;;;;;;5092433;28;20504;-75
2021/03/22 03:55:10;;;;;;;15.10;3.72;;;5.10;95.20;;;;;;5092420;28;20469;-75
2021/03/22 03:57:38;;;;;;;18.42;4.05;;;5.10;95.00;;;;;;5092691;28;20685;-75
2021/03/22 04:00:10;;;;;;;18.23;4.00;;;5.10;95.00;;;;;;5095444;28;20138;-75
2021/03/22 04:02:37;;;;;;;20.63;3.90;;;5.10;95.10;;;;;;5093995;28;20528;-75
2021/03/22 04:05:06;;;;;;;18.55;4.13;;;5.10;94.90;;;;;;5093717;28;20076;-75
2021/03/22 04:07:32;;;;;;;16.58;4.15;;;5.10;95.00;;;;;;5092203;28;20493;-74
2021/03/22 04:09:59;;;;;;;14.57;3.33;;;5.20;94.80;;;;;;5074586;28;20062;-75
2021/03/22 04:12:26;;;;;;;11.82;3.40;;;5.10;94.90;;;;;;5092594;28;20079;-75
2021/03/22 04:14:53;;;;;;;11.63;3.47;;;5.10;94.90;;;;;;5074453;28;20104;-74
2021/03/22 04:17:20;;;;;;;15.77;3.67;;;5.10;94.90;;;;;;5057974;28;20055;-75
2021/03/22 04:19:46;;;;;;;15.27;3.50;;;5.10;94.80;;;;;;5092455;28;20137;-74
2021/03/22 04:22:13;;;;;;;12.88;3.72;;;5.10;94.60;;;;;;5092320;28;20054;-74
2021/03/22 04:24:39;;;;;;;14.48;3.55;;;5.10;94.60;;;;;;5091993;28;20083;-74
2021/03/22 04:27:09;;;;;;;14.00;3.40;;;5.10;94.40;;;;;;5092497;28;20131;-74
2021/03/22 04:29:35;;;;;;;11.80;3.30;;;5.10;94.40;;;;;;5074510;28;20135;-75
2021/03/22 04:32:03;;;;;;;11.73;3.40;;;5.10;94.40;;;;;;5091867;28;20131;-74
2021/03/22 04:34:30;;;;;;;12.68;2.92;;;5.10;94.50;;;;;;5091898;28;20071;-75
2021/03/22 04:36:56;;;;;;;15.10;3.50;;;5.20;94.50;;;;;;5091946;28;20044;-74
2021/03/22 04:39:23;;;;;;;16.05;3.40;;;5.20;94.20;;;;;;5092261;28;20079;-75
2021/03/22 04:41:50;;;;;;;11.90;2.90;;;5.10;94.10;;;;;;5089064;28;20052;-74
2021/03/22 04:44:16;;;;;;;12.00;3.10;;;5.20;94.10;;;;;;5091920;28;20456;-75
2021/03/22 04:46:43;;;;;;;14.70;3.92;;;5.10;94.10;;;;;;5092102;28;20047;-75
2021/03/22 04:49:11;;;;;;;14.05;3.22;;;5.20;93.80;;;;;;5091561;28;20139;-75
2021/03/22 04:51:37;;;;;;;14.15;3.28;;;5.20;93.70;;;;;;5091572;28;20516;-74
2021/03/22 04:54:05;;;;;;;14.10;3.15;;;5.10;93.80;;;;;;5091461;28;20054;-75
2021/03/22 04:56:31;;;;;;;14.27;3.00;;;5.10;93.80;;;;;;5073882;28;20047;-75
2021/03/22 04:58:58;;;;;;;15.40;3.75;;;5.10;93.40;;;;;;5091342;28;20048;-75
2021/03/22 05:01:24;;;;;;;16.40;3.83;;;5.10;93.50;;;;;;5092978;28;20474;-75
2021/03/22 05:03:51;;;;;;;12.75;3.42;;;5.10;93.60;;;;;;5094895;28;20521;-74
2021/03/22 05:06:19;;;;;;;16.27;4.05;;;5.10;93.70;;;;;;5095201;28;20131;-74
2021/03/22 05:08:46;;;;;;;12.48;3.33;;;5.10;93.80;;;;;;5095154;28;20473;-75
2021/03/22 05:11:16;;;;;;;12.93;3.20;;;5.10;93.70;;;;;;5094427;28;20179;-75
2021/03/22 05:13:42;;;;;;;18.20;3.92;;;5.00;93.90;;;;;;5094935;28;20051;-75
2021/03/22 05:16:11;;;;;;;19.45;3.70;;;5.00;93.80;;;;;;5094696;28;20123;-75
2021/03/22 05:18:38;;;;;;;15.13;3.63;;;5.00;93.90;;;;;;5094976;28;20044;-72
2021/03/22 05:21:08;;;;;;;11.88;3.30;;;5.00;93.90;;;;;;5094017;28;20062;-75
2021/03/22 05:23:39;;;;;;;11.77;3.08;;;5.00;94.00;;;;;;5094627;28;20051;-74
2021/03/22 05:26:08;;;;;;;15.88;3.47;;;5.00;94.20;;;;;;5094416;28;20044;-74
2021/03/22 05:28:40;;;;;;;11.50;3.63;;;5.10;94.10;;;;;;5094417;28;20079;-74
2021/03/22 05:31:07;;;;;;;15.32;3.38;;;5.10;93.90;;;;;;5094560;28;20055;-74
2021/03/22 05:33:33;;;;;;;15.93;4.32;;;5.10;93.60;;;;;;5087666;28;20135;-74
2021/03/22 05:36:01;;;;;;;12.50;3.72;;;5.00;93.80;;;;;;5094018;28;20118;-74
2021/03/22 05:38:29;;;;;;;15.68;4.15;;;5.00;93.70;;;;;;5094673;28;20076;-74
2021/03/22 05:41:00;;;;;;;15.23;3.15;;;5.00;94.00;;;;;;5094396;28;20560;-74
2021/03/22 05:43:53;;;;;;;14.07;3.28;;;5.10;93.50;;;;;;5094298;28;20083;-74
2021/03/22 05:46:36;;;;;;;15.77;3.28;;;5.10;93.50;;;;;;5094545;28;20131;-74
2021/03/22 05:49:24;;;;;;;12.63;3.13;;;5.00;93.70;;;;;;5094477;28;20131;-74
2021/03/22 05:52:58;;;;;;;12.20;3.53;;;5.00;93.70;;;;;;5094706;28;20040;-74
2021/03/22 05:55:51;;;;;;;19.20;3.70;;;5.00;93.70;;;;;;5094462;28;20092;-74
2021/03/22 05:58:47;;;;;;;13.15;3.03;;;5.00;93.40;;;;;;5094667;28;20048;-74
2021/03/22 06:01:32;;;;;;;12.88;3.00;;;5.00;93.50;;;;;;5094333;28;20135;-74
2021/03/22 06:04:04;;;;;;;14.88;3.13;;;5.00;93.30;;;;;;5076341;28;20052;-74
2021/03/22 06:06:37;;;;;;;15.27;3.40;;;5.00;93.20;;;;;;5095037;28;20514;-74
2021/03/22 06:09:18;;;;;;;14.95;3.25;;;5.00;93.40;;;;;;5094521;28;20044;-74
2021/03/22 06:11:55;;;;;;;11.95;3.03;;;5.00;93.20;;;;;;5094329;28;20139;-74
2021/03/22 06:14:34;;;;;;;9.07;2.47;;;5.00;93.30;;;;;;5094443;28;20556;-74
2021/03/22 06:17:07;;;;;;;12.82;3.15;;;5.00;93.30;;;;;;5094865;28;20044;-74
2021/03/22 06:19:41;;;;;;;13.10;3.08;;;5.00;93.30;;;;;;5094598;28;20137;-74
2021/03/22 06:22:22;;;;;;;12.25;2.60;;;5.10;92.80;;;;;;5101482;28;20560;-74
2021/03/22 06:24:48;;;;;;;13.55;2.72;;;5.10;92.90;;;;;;5101793;28;20043;-74
2021/03/22 06:27:16;;;;;;;14.35;3.08;;;5.20;92.50;;;;;;5093997;28;20127;-74
2021/03/22 06:29:44;;;;;;;17.15;3.00;;;5.20;92.10;;;;;;5093674;28;20048;-74
2021/03/22 06:32:18;;;;;;;9.85;2.40;;;5.10;92.00;;;;;;5093788;28;20048;-74
2021/03/22 06:34:53;;;;;;;10.77;2.53;;;5.20;92.10;;;;;;5094198;28;20136;-74
2021/03/22 06:37:23;;;;;;;11.90;2.90;;;5.10;92.20;;;;;;5095144;28;20044;-74
2021/03/22 06:40:04;;;;;;;11.55;2.53;;;5.10;92.00;;;;;;5104592;28;20040;-74
2021/03/22 06:42:31;;;;;;;9.90;2.28;;;5.20;91.90;;;;;;5097364;28;20052;-74
2021/03/22 06:44:58;;;;;;;9.23;2.40;;;5.20;91.80;;;;;;5083980;28;20080;-74
2021/03/22 06:47:30;;;;;;;11.77;2.47;;;5.20;91.60;;;;;;5061163;28;20239;-74
2021/03/22 06:50:22;;;;;;;8.32;1.98;;;5.20;91.40;;;;;;5063177;28;20045;-74
2021/03/22 06:52:50;;;;;;;13.00;2.75;;;5.20;91.60;;;;;;5100082;28;20076;-74
2021/03/22 06:55:31;;;;;;;7.13;1.98;;;5.30;91.20;;;;;;5100741;28;20470;-74
2021/03/22 06:57:59;;;;;;;9.13;2.13;;;5.30;91.60;;;;;;5103862;28;20082;-74
2021/03/22 07:00:28;;;;;;;9.60;1.95;;;5.30;91.00;;;;;;5103310;28;20139;-74
2021/03/22 07:02:58;;;;;;;8.70;1.92;;;5.30;90.60;;;;;;5103719;28;20111;-75
2021/03/22 07:05:38;;;;;;;6.78;2.25;;;5.40;90.90;;;;;;5103962;28;20055;-74
2021/03/22 07:08:09;;;;;;;9.35;1.77;;;5.40;90.70;;;;;;5103749;28;20063;-74
2021/03/22 07:10:39;;;;;;;10.93;2.17;;;5.40;90.50;;;;;;5103354;28;20055;-74
2021/03/22 07:13:19;;;;;;;6.10;1.92;;;5.40;90.60;;;;;;5103946;28;20048;-74
2021/03/22 07:15:48;;;;;;;9.20;2.25;;;5.40;90.40;;;;;;5104464;28;20487;-74
2021/03/22 07:18:23;;;;;;;9.00;2.38;;;5.50;90.10;;;;;;5104551;28;20083;-74
2021/03/22 07:21:15;;;;;;;7.45;2.10;;;5.50;89.80;;;;;;5103392;28;20068;-75
2021/03/22 07:24:09;;;;;;;8.30;2.20;;;5.50;90.30;;;;;;5100235;28;20040;-75
2021/03/22 07:27:07;;;;;;;10.32;2.20;;;5.50;90.00;;;;;;5091163;28;20046;-74
2021/03/22 07:30:28;;;;;;;12.45;2.03;;;5.50;89.70;;;;;;5082144;28;20116;-74
2021/03/22 07:33:24;;;;;;;12.93;2.35;;;5.50;89.80;;;;;;5073349;28;20082;-74
2021/03/22 07:36:24;;;;;;;11.32;2.40;;;5.50;89.80;;;;;;5086586;28;20128;-74
2021/03/22 07:39:33;;;;;;;10.93;2.33;;;5.50;90.10;;;;;;5085771;28;20078;-74
2021/03/22 07:42:34;;;;;;;10.43;2.67;;;5.50;90.10;;;;;;5071614;28;20052;-74
2021/03/22 07:45:30;;;;;;;13.50;2.20;;;5.50;90.30;;;;;;5084684;28;20095;-74
2021/03/22 07:48:40;;;;;;;10.63;2.33;;;5.50;90.30;;;;;;5079897;28;20044;-74
2021/03/22 07:51:34;;;;;;;11.88;3.25;;;5.50;90.50;;;;;;5086042;28;20094;-74
2021/03/22 07:54:13;;;;;;;11.07;2.38;;;5.60;90.60;;;;;;5085425;28;20048;-74
2021/03/22 07:56:49;;;;;;;13.45;2.90;;;5.60;90.40;;;;;;5085990;28;20095;-74
2021/03/22 07:59:26;;;;;;;11.82;2.50;;;5.60;90.30;;;;;;5085113;28;20521;-74
2021/03/22 08:02:15;;;;;;;13.98;3.17;;;5.70;90.60;;;;;;5066395;28;20134;-74
2021/03/22 08:04:50;;;;;;;11.48;2.60;;;5.70;90.40;;;;;;5077604;28;20118;-74
2021/03/22 08:07:50;;;;;;;15.15;4.53;;;5.70;90.70;;;;;;5076624;28;20193;-74
2021/03/22 08:10:32;;;;;;;18.73;3.88;;;5.80;90.80;;;;;;5076606;28;20091;-74
2021/03/22 08:13:13;;;;;;;14.90;3.22;;;5.90;91.00;;;;;;5076566;28;20127;-74
2021/03/22 08:15:53;;;;;;;15.90;3.17;;;5.90;90.90;;;;;;5076133;28;20194;-74
2021/03/22 08:18:28;;;;;;;11.90;2.95;;;5.70;91.20;;;;;;5076085;28;20135;-74
2021/03/22 08:21:08;;;;;;;13.95;3.63;;;5.70;91.30;;;;;;5076393;28;20511;-74
2021/03/22 08:23:48;;;;;;;11.93;2.70;;;5.70;91.40;;;;;;5075946;28;20465;-75
2021/03/22 08:26:25;;;;;;;13.65;2.97;;;5.70;91.70;;;;;;5075925;28;20131;-74
2021/03/22 08:29:05;;;;;;;11.07;3.17;;;5.70;91.80;;;;;;5058283;28;20140;-74
2021/03/22 08:31:44;;;;;;;13.73;3.15;;;5.80;91.70;;;;;;5076023;28;20048;-74
2021/03/22 08:34:17;;;;;;;12.40;2.80;;;5.80;91.60;;;;;;5076170;28;20068;-74
2021/03/22 08:36:55;;;;;;;14.40;3.67;;;5.90;91.00;;;;;;5075531;28;20072;-75
2021/03/22 08:39:29;;;;;;;16.42;3.40;;;5.90;91.20;;;;;;5058576;28;20520;-74
2021/03/22 08:42:03;;;;;;;15.60;3.40;;;5.90;91.10;;;;;;5076248;28;20049;-74
2021/03/22 08:44:34;;;;;;;14.45;3.70;;;5.80;91.10;;;;;;5057857;28;20072;-74
2021/03/22 08:47:35;;;;;;;17.15;3.80;;;5.90;90.80;;;;;;5076203;28;20094;-74
2021/03/22 08:50:08;;;;;;;13.70;2.83;;;5.90;90.60;;;;;;5075792;28;20044;-74
2021/03/22 08:52:39;;;;;;;13.88;3.30;;;5.80;91.20;;;;;;5075957;28;20511;-74
2021/03/22 08:55:12;;;;;;;13.38;2.90;;;5.90;91.20;;;;;;5075729;28;20504;-74
2021/03/22 08:57:53;;;;;;;12.43;3.28;;;5.90;91.30;;;;;;5087260;28;20504;-74
2021/03/22 09:00:33;;;;;;;17.25;3.47;;;5.90;91.50;;;;;;5095769;28;20432;-74
2021/03/22 09:03:05;;;;;;;13.70;3.10;;;5.90;91.50;;;;;;5095502;28;20493;-74
2021/03/22 09:05:34;;;;;;;10.93;2.72;;;5.90;91.50;;;;;;5096107;28;20485;-74
2021/03/22 09:08:21;;;;;;;11.18;2.90;;;5.90;91.90;;;;;;5096344;28;20135;-74
2021/03/22 09:10:50;;;;;;;13.27;2.88;;;6.00;92.10;;;;;;5079064;28;20130;-74
2021/03/22 09:13:32;;;;;;;12.00;2.83;;;6.20;91.70;;;;;;5098217;28;20044;-74
2021/03/22 09:16:30;;;;;;;12.48;3.10;;;6.20;90.70;;;;;;5096026;28;20055;-74
2021/03/22 09:19:43;;;;;;;8.57;2.30;;;6.20;90.30;;;;;;5092343;28;20051;-74
2021/03/22 09:22:51;;;;;;;8.20;2.40;;;6.20;90.80;;;;;;5094221;28;20476;-74
2021/03/22 09:25:55;;;;;;;10.02;2.53;;;6.30;90.80;;;;;;5092601;28;20040;-74
2021/03/22 09:28:49;;;;;;;9.57;2.55;;;6.30;90.40;;;;;;5094808;28;20055;-74
2021/03/22 09:31:43;;;;;;;12.37;2.50;;;6.50;89.90;;;;;;5094795;28;20083;-74
2021/03/22 09:34:43;;;;;;;11.18;2.30;;;6.60;89.10;;;;;;5094462;28;20524;-74
2021/03/22 09:37:48;;;;;;;9.07;2.08;;;6.60;89.00;;;;;;5094260;28;20130;-74
2021/03/22 09:40:53;;;;;;;9.50;2.20;;;6.60;88.80;;;;;;5094187;28;20050;-74
2021/03/22 09:43:34;;;;;;;7.20;2.08;;;6.70;88.30;;;;;;5094381;28;20044;-74
2021/03/22 09:46:20;;;;;;;7.47;2.35;;;6.70;86.90;;;;;;5094646;28;20130;-74
2021/03/22 09:48:46;;;;;;;6.80;1.83;;;6.80;85.60;;;;;;5094377;28;20126;-74
2021/03/22 09:51:35;;;;;;;8.45;2.08;;;6.70;86.10;;;;;;5094183;28;20135;-74
2021/03/22 09:54:04;;;;;;;5.93;1.90;;;6.70;85.60;;;;;;5094600;28;20076;-74
2021/03/22 09:56:34;;;;;;;8.75;2.58;;;6.60;85.60;;;;;;5093183;28;20044;-74
2021/03/22 09:59:24;;;;;;;7.32;2.25;;;6.70;85.40;;;;;;5094472;28;20048;-74
2021/03/22 10:01:54;;;;;;;9.40;2.72;;;6.70;86.10;;;;;;5095022;28;20079;-74
2021/03/22 10:04:34;;;;;;;9.90;2.30;;;6.70;85.40;;;;;;5097565;28;20066;-74
2021/03/22 10:07:10;;;;;;;6.63;2.25;;;6.60;85.80;;;;;;5096640;28;20131;-74
2021/03/22 10:09:42;;;;;;;8.50;1.85;;;6.60;86.60;;;;;;5094641;28;20127;-74
2021/03/22 10:12:17;;;;;;;8.88;2.40;;;6.60;86.90;;;;;;5094280;28;20051;-74
2021/03/22 10:14:46;;;;;;;7.03;2.10;;;6.60;87.70;;;;;;5093882;28;20446;-74
2021/03/22 10:17:24;;;;;;;6.90;1.80;;;6.60;88.00;;;;;;5094049;28;20091;-74
2021/03/22 10:19:55;;;;;;;9.20;1.92;;;6.60;89.10;;;;;;5076268;28;20079;-74
2021/03/22 10:22:24;;;;;;;7.25;1.98;;;6.60;89.10;;;;;;5093768;28;20127;-74
2021/03/22 10:24:59;;;;;;;8.43;1.70;;;6.70;89.80;;;;;;5075950;28;20044;-74
2021/03/22 10:27:30;;;;;;;6.35;1.60;;;6.70;89.60;;;;;;5075734;28;20054;-74
2021/03/22 10:30:19;;;;;;;5.78;2.10;;;6.80;88.60;;;;;;5093558;28;20075;-74
2021/03/22 10:32:51;;;;;;;6.70;1.95;;;6.80;88.50;;;;;;5093359;28;20077;-74
2021/03/22 10:35:20;;;;;;;11.27;3.15;;;7.00;87.80;;;;;;5093521;28;20048;-74
2021/03/22 10:37:50;;;;;;;7.55;2.08;;;7.10;85.80;;;;;;5093602;28;20127;-74
2021/03/22 10:40:28;;;;;;;6.65;1.80;;;7.00;86.40;;;;;;5058975;28;20127;-74
2021/03/22 10:42:57;;;;;;;6.72;2.10;;;7.10;86.50;;;;;;5075420;28;20058;-74
2021/03/22 10:45:34;;;;;;;7.07;1.95;;;7.10;85.80;;;;;;5093337;28;20131;-75
2021/03/22 10:48:20;;;;;;;8.50;2.20;;;7.10;86.30;;;;;;5093212;28;20127;-74
2021/03/22 10:50:47;;;;;;;11.52;2.28;;;7.00;86.60;;;;;;5093229;28;20484;-74
2021/03/22 10:53:18;;;;;;;8.00;1.98;;;7.00;85.60;;;;;;5093234;28;20138;-74
2021/03/22 10:55:48;;;;;;;7.55;1.95;;;7.00;85.60;;;;;;5093077;28;20131;-74
2021/03/22 10:58:26;;;;;;;7.75;1.60;;;6.90;85.20;;;;;;5093045;28;20234;-74
2021/03/22 11:01:00;;;;;;;5.65;2.08;;;6.90;85.80;;;;;;5059138;28;20496;-74
2021/03/22 11:03:28;;;;;;;7.55;1.92;;;6.90;86.70;;;;;;5092686;28;20152;-74
2021/03/22 11:05:55;;;;;;;5.72;2.03;;;6.90;85.80;;;;;;5093007;28;20138;-74
2021/03/22 11:08:29;;;;;;;8.75;1.98;;;7.00;85.20;;;;;;5092857;28;20055;-74
2021/03/22 11:11:02;;;;;;;7.78;2.38;;;7.00;87.00;;;;;;5092969;28;20056;-74
2021/03/22 11:13:34;;;;;;;9.18;2.08;;;7.00;86.00;;;;;;5092993;28;20044;-74
2021/03/22 11:16:01;;;;;;;9.15;2.17;;;7.00;86.30;;;;;;5092564;28;20044;-74
2021/03/22 11:18:29;;;;;;;10.35;2.40;;;7.10;86.10;;;;;;5092733;28;20086;-74
2021/03/22 11:20:58;;;;;;;5.47;1.50;;;7.20;83.80;;;;;;5093094;28;20076;-74
2021/03/22 11:23:44;;;;;;;8.48;1.90;;;7.10;83.70;;;;;;5092503;28;20494;-74
2021/03/22 11:26:17;;;;;;;6.53;2.13;;;7.20;82.80;;;;;;5093084;28;20051;-74
2021/03/22 11:28:46;;;;;;;6.43;1.58;;;7.10;83.20;;;;;;5092924;28;20551;-74
2021/03/22 11:31:26;;;;;;;7.05;2.90;;;7.10;83.60;;;;;;5075046;28;20134;-74
2021/03/22 11:34:05;;;;;;;10.65;2.40;;;7.10;83.30;;;;;;5092620;28;20091;-74
2021/03/22 11:36:38;;;;;;;6.13;1.90;;;7.10;83.00;;;;;;5092774;28;20048;-74
2021/03/22 11:39:20;;;;;;;4.63;1.60;;;7.10;83.40;;;;;;5092673;28;20549;-74
2021/03/22 11:42:06;;;;;;;7.35;1.80;;;7.20;82.40;;;;;;5092826;28;20156;-74
2021/03/22 11:44:37;;;;;;;5.10;1.67;;;7.20;81.10;;;;;;5092352;28;20048;-74
2021/03/22 11:47:28;;;;;;;6.80;1.70;;;7.10;81.40;;;;;;5092403;28;20127;-74
2021/03/22 11:49:56;;;;;;;6.57;1.73;;;7.10;82.10;;;;;;5092395;28;20513;-75
2021/03/22 11:52:26;;;;;;;6.97;1.80;;;7.10;81.40;;;;;;5092348;28;20142;-74
2021/03/22 11:54:56;;;;;;;5.38;1.52;;;7.20;81.10;;;;;;5092532;28;20208;-74
2021/03/22 11:57:28;;;;;;;8.27;1.95;;;7.20;82.40;;;;;;5092662;28;20101;-74
2021/03/22 11:59:58;;;;;;;6.75;1.90;;;7.30;80.90;;;;;;5092526;28;20466;-75
2021/03/22 12:02:30;;;;;;;6.80;2.10;;;7.20;81.70;;;;;;5092130;28;20142;-75
2021/03/22 12:05:00;;;;;;;5.05;1.63;;;7.30;81.60;;;;;;5092403;28;20483;-75
2021/03/22 12:07:47;;;;;;;8.40;1.80;;;7.30;81.30;;;;;;5092568;28;20516;-75
2021/03/22 12:10:27;;;;;;;7.80;2.00;;;7.30;81.60;;;;;;5092448;28;20052;-74
2021/03/22 12:12:55;;;;;;;6.10;1.50;;;7.30;82.00;;;;;;5074591;28;20516;-75
2021/03/22 12:15:24;;;;;;;6.28;1.88;;;7.50;82.00;;;;;;5092523;28;20099;-75
2021/03/22 12:17:56;;;;;;;5.88;1.90;;;7.60;81.50;;;;;;5092219;28;20129;-75
2021/03/22 12:20:27;;;;;;;7.75;2.17;;;7.60;81.40;;;;;;5093239;28;20134;-74
2021/03/22 12:22:54;;;;;;;6.10;1.65;;;7.60;80.40;;;;;;5092939;28;20476;-75
2021/03/22 12:25:25;;;;;;;8.73;3.08;;;7.70;81.60;;;;;;5092955;28;20142;-75
2021/03/22 12:27:53;;;;;;;8.40;2.40;;;7.70;81.50;;;;;;5093355;28;20072;-75
2021/03/22 12:30:24;;;;;;;7.22;1.92;;;7.80;81.70;;;;;;5092927;28;20127;-75
2021/03/22 12:32:51;;;;;;;6.93;2.10;;;7.90;81.70;;;;;;5097442;28;20119;-75
2021/03/22 12:35:27;;;;;;;8.38;1.77;;;8.00;79.80;;;;;;5096958;28;20143;-75
2021/03/22 12:37:54;;;;;;;5.82;1.38;;;8.10;78.60;;;;;;5096249;28;20147;-75
2021/03/22 12:40:21;;;;;;;6.05;1.58;;;8.00;78.40;;;;;;5078568;28;20048;-75
2021/03/22 12:42:49;;;;;;;5.10;1.52;;;8.00;77.30;;;;;;5097261;28;20055;-75
2021/03/22 12:45:24;;;;;;;5.72;1.73;;;8.00;77.50;;;;;;5098199;28;20131;-75
2021/03/22 12:47:52;;;;;;;7.47;2.00;;;8.10;77.60;;;;;;5093097;28;20472;-75
2021/03/22 12:50:25;;;;;;;3.83;1.20;;;8.20;76.60;;;;;;5092967;28;20060;-74
2021/03/22 12:52:54;;;;;;;7.03;1.80;;;8.20;77.00;;;;;;5092688;28;20153;-75
2021/03/22 12:55:22;;;;;;;6.78;1.88;;;8.20;76.90;;;;;;5092625;28;20051;-74
2021/03/22 12:57:50;;;;;;;6.32;1.80;;;8.30;75.60;;;;;;5092218;28;20147;-75
2021/03/22 13:00:20;;;;;;;6.57;1.95;;;8.30;74.70;;;;;;5091711;28;20051;-75
2021/03/22 13:02:48;;;;;;;6.28;1.92;;;8.30;74.70;;;;;;5092182;28;20143;-75
2021/03/22 13:05:19;;;;;;;6.82;2.00;;;8.30;74.60;;;;;;5092572;28;20143;-75
2021/03/22 13:07:46;;;;;;;6.60;2.10;;;8.20;74.90;;;;;;5092091;28;20489;-75
2021/03/22 13:10:16;;;;;;;8.30;2.25;;;8.10;75.30;;;;;;5092312;28;20084;-75
2021/03/22 13:12:42;;;;;;;7.15;1.55;;;8.00;74.40;;;;;;5091603;28;20052;-75
2021/03/22 13:15:24;;;;;;;5.40;1.60;;;7.90;75.80;;;;;;5092026;28;20077;-75
2021/03/22 13:17:51;;;;;;;3.83;1.40;;;7.80;76.70;;;;;;5074061;28;20090;-75
2021/03/22 13:20:20;;;;;;;4.18;1.40;;;7.70;76.20;;;;;;5092669;28;20143;-75
2021/03/22 13:22:47;;;;;;;4.70;1.60;;;7.70;76.50;;;;;;5092068;28;20455;-75
2021/03/22 13:25:15;;;;;;;3.75;1.30;;;7.60;77.00;;;;;;5091464;28;20127;-75
2021/03/22 13:27:42;;;;;;;4.82;1.55;;;7.70;75.00;;;;;;5091347;28;20063;-75